WetterOnline ( https://www.wetteronline.de )

Wetter aktuell Luckenwalde

Aktuelles Wetter: Baruth (55m)

6-stündlich | Neueste Meldungen
Ortszeit Temperatur Wetter
Mi, 21.08. 20:00 20.0° C leicht bewölkt
Mi, 21.08. 14:00 22.5° C leicht bewölkt
Mi, 21.08. 8:00 14.2° C wolkenlos
Mi, 21.08. 2:00 14.3° C leichter Regen
Di, 20.08. 20:00 21.6° C wolkig
Di, 20.08. 14:00 24.9° C bewölkt
Di, 20.08. 8:00 11.7° C bedeckt
Di, 20.08. 2:00 10.3° C wolkig
Ortszeit Temperatur Wetter
Mi, 21.08. 20:00 20.0° C leicht bewölkt
Mi, 21.08. 19:40 20.7° C leicht bewölkt
Mi, 21.08. 19:30 21.8° C fast wolkenlos
Mi, 21.08. 19:20 21.8° C wolkenlos
Mi, 21.08. 19:10 22.2° C wolkenlos
Mi, 21.08. 19:00 23.1° C wolkig
Mi, 21.08. 18:50 23.1° C wolkig
Mi, 21.08. 18:30 23.6° C leicht bewölkt
Mi, 21.08. 18:00 23.9° C fast wolkenlos
Mi, 21.08. 17:30 23.7° C wolkenlos
Mi, 21.08. 17:00 23.5° C wolkenlos
Ortszeit Relative Feuchte Sichtweite
Mi, 21.08. 20:00 48% 55 km
Mi, 21.08. 14:00 40% 35 km
Mi, 21.08. 8:00 83% 35 km
Mi, 21.08. 2:00 93% 28 km
Di, 20.08. 20:00 52% 60 km
Di, 20.08. 14:00 38% >70 km
Di, 20.08. 8:00 88% 45 km
Di, 20.08. 2:00 89% 55 km
Ortszeit Relative Feuchte Sichtweite
Mi, 21.08. 20:00 48% 55 km
Mi, 21.08. 19:40 45% -
Mi, 21.08. 19:30 40% 50 km
Mi, 21.08. 19:20 40% -
Mi, 21.08. 19:10 38% -
Mi, 21.08. 19:00 34% 55 km
Mi, 21.08. 18:50 34% -
Mi, 21.08. 18:30 35% 50 km
Mi, 21.08. 18:00 35% 45 km
Mi, 21.08. 17:30 35% 45 km
Mi, 21.08. 17:00 37% 65 km
Ortszeit Niederschlagsmenge Niederschlagsart
Mi, 21.08. 20:00 0.0 l/m2 in 12 Std. -
Mi, 21.08. 14:00 0.0 l/m2 in 6 Std. -
Mi, 21.08. 8:00 0.6 l/m2 in 12 Std. Regen
Mi, 21.08. 2:00 0.6 l/m2 in 6 Std. Regen
Di, 20.08. 20:00 0.0 l/m2 in 12 Std. -
Di, 20.08. 14:00 0.0 l/m2 in 6 Std. -
Di, 20.08. 8:00 0.0 l/m2 in 12 Std. -
Di, 20.08. 2:00 0.0 l/m2 in 6 Std. -
Ortszeit Niederschlagsmenge Niederschlagsart
Mi, 21.08. 20:00 0.0 l/m2 in 1 Std. -
Mi, 21.08. 19:40 keine Meldung -
Mi, 21.08. 19:30 0.0 l/m2 in 1 Std. -
Mi, 21.08. 19:20 keine Meldung -
Mi, 21.08. 19:10 keine Meldung -
Mi, 21.08. 19:00 0.0 l/m2 in 1 Std. -
Mi, 21.08. 18:50 keine Meldung -
Mi, 21.08. 18:30 0.0 l/m2 in 1 Std. -
Mi, 21.08. 18:00 0.0 l/m2 in 1 Std. -
Mi, 21.08. 17:30 0.0 l/m2 in 1 Std. -
Mi, 21.08. 17:00 0.0 l/m2 in 1 Std. -
Ortszeit Stärke Spitze Richtung
km/h Bft. km/h Grad Sektor
Mi, 21.08. 20:00 4 1 29 340° N
Mi, 21.08. 14:00 14 3 25 270° W
Mi, 21.08. 8:00 14 3 18 280° W
Mi, 21.08. 2:00 6 1 17 270° W
Di, 20.08. 20:00 7 2 18 300° NW
Di, 20.08. 14:00 11 2 25 120° SO
Di, 20.08. 8:00 0 0 7 - -
Di, 20.08. 2:00 4 1 7 120° SO
Ortszeit Stärke Spitze Richtung
km/h Bft. km/h Grad Sektor
Mi, 21.08. 20:00 4 1 14 340° N
Mi, 21.08. 19:40 4 1 - 320° NW
Mi, 21.08. 19:30 6 1 13 310° NW
Mi, 21.08. 19:20 6 1 - 310° NW
Mi, 21.08. 19:10 7 2 - 320° NW
Mi, 21.08. 19:00 7 2 15 290° W
Mi, 21.08. 18:50 7 2 - 290° W
Mi, 21.08. 18:30 4 1 14 320° NW
Mi, 21.08. 18:00 4 1 22 330° NW
Mi, 21.08. 17:30 7 2 18 290° W
Mi, 21.08. 17:00 9 2 24 270° W
Ortszeit Untergrenze Bedeckung Gattung
total tief tief mittel hoch
Mi, 21.08. 20:00 2100 m 4/8 4/8 - - -
Mi, 21.08. 14:00 1470 m 2/8 1/8 - - -
Mi, 21.08. 8:00 - 0/8 0/8 - - -
Mi, 21.08. 2:00 1800 m 8/8 8/8 - - -
Di, 20.08. 20:00 2100 m 8/8 1/8 - - -
Di, 20.08. 14:00 2400 m 8/8 4/8 - - -
Di, 20.08. 8:00 6900 m 8/8 8/8 - - -
Di, 20.08. 2:00 7200 m 8/8 0/8 - - -
Ortszeit Bedeckungsgrad in Achtel und Wolkenuntergrenze
Mi, 21.08. 20:00 4(2100m)
Mi, 21.08. 19:40 3(2100m)
Mi, 21.08. 19:30 3(2100m)
Mi, 21.08. 19:20 keine Wolken
Mi, 21.08. 19:10 keine Wolken
Mi, 21.08. 19:00 5(2100m)
Mi, 21.08. 18:50 5(2100m)
Mi, 21.08. 18:30 4(2100m)
Mi, 21.08. 18:00 1(2100m)
Mi, 21.08. 17:30 keine Wolken
Mi, 21.08. 17:00 keine Wolken
Ortszeit Luftdruck NN (hPa) Tendenz (hPa in 3 Std.)
Mi, 21.08. 20:00 1028 + 0,2
Mi, 21.08. 14:00 1027 - 0,3
Mi, 21.08. 8:00 1027 + 1,6
Mi, 21.08. 2:00 1025 + 1,6
Di, 20.08. 20:00 1022 + 0,7
Di, 20.08. 14:00 1021 - 0,3
Di, 20.08. 8:00 1022 + 1,2
Di, 20.08. 2:00 1020 + 0,8
Ortszeit Luftdruck NN (hPa) Tendenz (hPa in 3 Std.)
Mi, 21.08. 20:00 1028 + 0,2
Mi, 21.08. 19:40 1028 keine Meldung
Mi, 21.08. 19:30 1027 + 0,3
Mi, 21.08. 19:20 1027 keine Meldung
Mi, 21.08. 19:10 1027 keine Meldung
Mi, 21.08. 19:00 1027 + 0,2
Mi, 21.08. 18:50 1027 keine Meldung
Mi, 21.08. 18:30 1027 0,0
Mi, 21.08. 18:00 1027 0,0
Mi, 21.08. 17:30 1027 - 0,1
Mi, 21.08. 17:00 1027 - 0,2
Ortszeit Schneehöhe (cm)
Mi, 21.08. 20:00 -
Mi, 21.08. 14:00 -
Mi, 21.08. 8:00 -
Mi, 21.08. 2:00 -
Di, 20.08. 20:00 -
Di, 20.08. 14:00 -
Di, 20.08. 8:00 -
Di, 20.08. 2:00 -
Ortszeit Schneehöhe (cm)
Mi, 21.08. 20:00 -
Mi, 21.08. 19:40 -
Mi, 21.08. 19:30 -
Mi, 21.08. 19:20 -
Mi, 21.08. 19:10 -
Mi, 21.08. 19:00 -
Mi, 21.08. 18:50 -
Mi, 21.08. 18:30 -
Mi, 21.08. 18:00 -
Mi, 21.08. 17:30 -
Mi, 21.08. 17:00 -
Link zu dieser Seite / Seite empfehlen

Das Wetter in ...